createdAt,value
2022-11-22T00:03:00.892Z,15.10
2022-11-22T00:06:05.666Z,14.95
2022-11-22T00:09:09.820Z,110.75
2022-11-22T00:12:14.326Z,6.25
2022-11-22T00:15:18.965Z,26.55
2022-11-22T00:18:23.253Z,10.80
2022-11-22T00:21:27.566Z,31.88
2022-11-22T00:24:32.023Z,22.90
2022-11-22T00:27:37.136Z,26.45
2022-11-22T00:30:41.945Z,7.68
2022-11-22T00:33:46.188Z,32.72
2022-11-22T00:36:50.329Z,7.65
2022-11-22T00:39:54.695Z,83.18
2022-11-22T00:42:58.986Z,20.42
2022-11-22T00:46:03.414Z,18.15
2022-11-22T00:49:07.562Z,12.45
2022-11-22T00:52:11.990Z,17.95
2022-11-22T00:55:16.347Z,14.25
2022-11-22T00:58:20.698Z,10.88
2022-11-22T01:01:26.609Z,15.48
2022-11-22T01:04:31.163Z,8.75
2022-11-22T01:07:35.813Z,15.73
2022-11-22T01:10:40.001Z,5.93
2022-11-22T01:13:44.615Z,84.32
2022-11-22T01:16:49.488Z,18.17
2022-11-22T01:19:53.996Z,22.10
2022-11-22T01:22:59.745Z,16.67
2022-11-22T01:26:04.093Z,10.45
2022-11-22T01:29:08.636Z,13.63
2022-11-22T01:32:12.856Z,16.40
2022-11-22T01:35:17.409Z,8.68
2022-11-22T01:38:21.560Z,13.68
2022-11-22T01:41:25.932Z,7.35
2022-11-22T01:44:34.109Z,9.32
2022-11-22T01:47:38.653Z,13.63
2022-11-22T01:50:46.116Z,54.50
2022-11-22T01:53:50.749Z,37.28
2022-11-22T01:57:01.857Z,17.70
2022-11-22T02:00:11.487Z,32.50
2022-11-22T02:03:23.735Z,27.17
2022-11-22T02:06:35.601Z,10.48
2022-11-22T02:09:42.190Z,9.85
2022-11-22T02:12:47.052Z,27.38
2022-11-22T02:15:53.512Z,41.88
2022-11-22T02:18:57.728Z,9.77
2022-11-22T02:22:11.710Z,13.25
2022-11-22T02:25:20.835Z,8.73
2022-11-22T02:28:26.536Z,5.30
2022-11-22T02:31:41.035Z,72.90
2022-11-22T02:34:50.584Z,13.90
2022-11-22T02:38:19.108Z,9.98
2022-11-22T02:41:23.357Z,7.05
2022-11-22T02:44:28.628Z,13.93
2022-11-22T02:47:32.970Z,8.98
2022-11-22T02:50:37.954Z,25.75
2022-11-22T02:53:42.390Z,20.37
2022-11-22T02:56:46.727Z,6.85
2022-11-22T02:59:50.927Z,12.63
2022-11-22T03:02:56.002Z,16.23
2022-11-22T03:06:00.562Z,31.20
2022-11-22T03:09:05.315Z,7.37
2022-11-22T03:12:11.548Z,18.42
2022-11-22T03:15:21.010Z,35.10
2022-11-22T03:18:25.623Z,8.38
2022-11-22T03:21:30.565Z,4.28
2022-11-22T03:24:35.296Z,4.65
2022-11-22T03:27:40.342Z,12.20
2022-11-22T03:30:44.998Z,14.52
2022-11-22T03:33:49.476Z,14.15
2022-11-22T03:36:53.824Z,16.73
2022-11-22T03:39:58.067Z,6.65
2022-11-22T03:43:03.791Z,5.43
2022-11-22T03:46:08.080Z,27.52
2022-11-22T03:49:12.944Z,8.60
2022-11-22T03:52:17.664Z,10.15
2022-11-22T03:55:21.764Z,6.78
2022-11-22T03:58:26.136Z,7.32
2022-11-22T04:01:31.076Z,8.43
2022-11-22T04:04:35.522Z,5.97
2022-11-22T04:07:40.195Z,5.82
2022-11-22T04:10:44.741Z,5.30
2022-11-22T04:14:07.076Z,5.95
2022-11-22T04:17:15.270Z,5.25
2022-11-22T04:20:47.126Z,4.60
2022-11-22T04:24:11.226Z,4.60
2022-11-22T04:27:15.936Z,5.95
2022-11-22T04:30:21.057Z,6.22
2022-11-22T04:33:25.893Z,4.60
2022-11-22T04:36:30.347Z,13.85
2022-11-22T04:39:36.621Z,10.68
2022-11-22T04:42:59.137Z,11.23
2022-11-22T04:46:03.747Z,15.68
2022-11-22T04:49:07.929Z,7.07
2022-11-22T04:52:30.894Z,7.55
2022-11-22T04:55:35.359Z,6.53
2022-11-22T04:58:40.041Z,4.13
2022-11-22T05:01:44.459Z,9.53
2022-11-22T05:04:50.799Z,10.38
2022-11-22T05:07:55.412Z,10.88
2022-11-22T05:11:00.407Z,35.47
2022-11-22T05:14:05.256Z,4.97
2022-11-22T05:17:13.168Z,11.70
2022-11-22T05:20:18.293Z,5.93
2022-11-22T05:23:55.356Z,5.55
2022-11-22T05:30:03.536Z,5.28
2022-11-22T05:33:07.975Z,5.78
2022-11-22T05:36:13.633Z,12.23
2022-11-22T05:39:18.024Z,7.40
2022-11-22T05:42:22.950Z,3.38
2022-11-22T05:45:27.786Z,9.95
2022-11-22T05:48:32.409Z,12.23
2022-11-22T05:51:36.754Z,9.50
2022-11-22T05:54:41.062Z,7.85
2022-11-22T05:57:45.441Z,8.32
2022-11-22T06:00:50.041Z,6.82
2022-11-22T06:03:55.454Z,7.60
2022-11-22T06:06:59.693Z,11.10
2022-11-22T06:10:04.433Z,6.63
2022-11-22T06:13:09.861Z,8.55
2022-11-22T06:16:16.484Z,12.45
2022-11-22T06:19:21.026Z,13.85
2022-11-22T06:22:25.194Z,9.77
2022-11-22T06:25:29.483Z,9.48
2022-11-22T06:28:35.283Z,13.38
2022-11-22T06:34:43.697Z,9.77
2022-11-22T06:37:49.734Z,11.30
2022-11-22T06:40:53.913Z,13.93
2022-11-22T06:43:58.510Z,15.32
2022-11-22T06:47:03.145Z,15.93
2022-11-22T06:50:08.240Z,21.02
2022-11-22T06:53:32.295Z,16.70
2022-11-22T06:56:42.233Z,18.80
2022-11-22T06:59:46.688Z,24.52
2022-11-22T07:02:51.011Z,17.98
2022-11-22T07:05:56.379Z,15.60
2022-11-22T07:09:02.592Z,18.20
2022-11-22T07:12:07.499Z,23.85
2022-11-22T07:15:12.429Z,24.55
2022-11-22T07:18:16.864Z,35.92
2022-11-22T07:21:25.629Z,29.13
2022-11-22T07:24:31.112Z,30.30
2022-11-22T07:27:35.294Z,60.53
2022-11-22T07:30:43.883Z,65.80
2022-11-22T07:33:49.061Z,62.10
2022-11-22T07:36:59.671Z,77.07
2022-11-22T07:40:06.448Z,72.90
2022-11-22T07:43:10.797Z,62.63
2022-11-22T07:46:30.570Z,100.90
2022-11-22T07:49:34.731Z,77.53
2022-11-22T07:52:39.855Z,75.05
2022-11-22T07:55:44.126Z,85.55
2022-11-22T07:58:48.593Z,90.80
2022-11-22T08:01:53.002Z,92.32
2022-11-22T08:04:57.371Z,131.00
2022-11-22T08:08:01.629Z,118.55
2022-11-22T08:11:07.669Z,104.93
2022-11-22T08:14:13.185Z,91.63
2022-11-22T08:17:17.661Z,101.28
2022-11-22T08:20:22.005Z,79.43
2022-11-22T08:23:26.514Z,92.72
2022-11-22T08:26:30.758Z,93.38
2022-11-22T08:29:35.682Z,104.60
2022-11-22T08:32:40.290Z,196.10
2022-11-22T08:35:44.845Z,101.82
2022-11-22T08:38:49.204Z,120.97
2022-11-22T08:41:53.613Z,139.95
2022-11-22T08:44:57.742Z,142.05
2022-11-22T08:48:02.116Z,266.92
2022-11-22T08:51:13.479Z,273.23
2022-11-22T08:54:18.136Z,348.30
2022-11-22T08:57:22.547Z,353.05
2022-11-22T09:00:32.935Z,337.65
2022-11-22T09:03:38.624Z,367.58
2022-11-22T09:10:11.733Z,502.85
2022-11-22T09:13:17.063Z,380.63
2022-11-22T09:16:22.302Z,393.30
2022-11-22T09:19:27.194Z,466.13
2022-11-22T09:22:35.416Z,476.33
2022-11-22T09:25:40.313Z,474.80
2022-11-22T09:28:45.427Z,428.40
2022-11-22T09:31:50.607Z,387.98
2022-11-22T09:34:55.130Z,417.52
2022-11-22T09:37:59.660Z,458.42
2022-11-22T09:41:25.407Z,371.13
2022-11-22T09:44:48.534Z,421.85
2022-11-22T09:48:22.032Z,378.90
2022-11-22T09:51:35.679Z,379.08
2022-11-22T09:55:05.908Z,399.83
2022-11-22T09:58:32.633Z,322.65
2022-11-22T10:02:18.256Z,283.85
2022-11-22T10:05:30.824Z,311.77
2022-11-22T10:08:58.688Z,311.50
2022-11-22T10:12:24.141Z,317.80
2022-11-22T10:15:49.316Z,320.05
2022-11-22T10:19:09.539Z,217.93
2022-11-22T10:22:16.075Z,219.65
2022-11-22T10:25:47.038Z,224.35
2022-11-22T10:29:32.166Z,250.15
2022-11-22T10:32:50.716Z,224.00
2022-11-22T10:36:10.529Z,222.57
2022-11-22T10:39:21.034Z,206.98
2022-11-22T10:43:03.718Z,229.40
2022-11-22T10:46:25.230Z,208.98
2022-11-22T10:49:53.820Z,195.00
2022-11-22T10:53:24.610Z,170.60
2022-11-22T10:56:35.949Z,144.52
2022-11-22T10:59:56.604Z,214.23
2022-11-22T11:03:28.196Z,164.55
2022-11-22T11:07:04.579Z,154.35
2022-11-22T11:10:29.285Z,108.30
2022-11-22T11:13:43.377Z,268.52
2022-11-22T11:16:48.334Z,732.30
2022-11-22T11:19:56.472Z,327.08
2022-11-22T11:23:16.750Z,234.23
2022-11-22T11:26:29.586Z,258.88
2022-11-22T11:29:42.562Z,255.20
2022-11-22T11:32:57.887Z,262.17
2022-11-22T11:36:17.622Z,181.38
2022-11-22T11:39:26.709Z,164.35
2022-11-22T11:42:34.189Z,252.38
2022-11-22T11:45:38.468Z,172.98
2022-11-22T11:48:44.375Z,169.77
2022-11-22T11:51:54.513Z,139.50
2022-11-22T11:55:04.253Z,152.68
2022-11-22T11:58:35.130Z,130.90
2022-11-22T12:02:15.852Z,133.73
2022-11-22T12:05:20.379Z,123.00
2022-11-22T12:08:33.264Z,132.82
2022-11-22T12:11:49.917Z,131.85
2022-11-22T12:15:36.741Z,189.57
2022-11-22T12:18:51.485Z,177.60
2022-11-22T12:22:29.349Z,180.73
2022-11-22T12:25:43.567Z,151.27
2022-11-22T12:28:50.117Z,126.75
2022-11-22T12:32:28.418Z,103.60
2022-11-22T12:35:45.158Z,87.65
2022-11-22T12:38:54.053Z,100.22
2022-11-22T12:42:24.546Z,109.72
2022-11-22T12:45:40.962Z,85.85
2022-11-22T12:49:06.879Z,86.28
2022-11-22T12:52:34.110Z,93.90
2022-11-22T12:56:26.148Z,72.70
2022-11-22T13:00:15.508Z,101.53
2022-11-22T13:03:31.358Z,105.78
2022-11-22T13:06:46.469Z,77.47
2022-11-22T13:10:04.790Z,61.83
2022-11-22T13:13:29.147Z,65.32
2022-11-22T13:16:34.894Z,111.47
2022-11-22T13:19:58.526Z,123.63
2022-11-22T13:23:21.474Z,119.25
2022-11-22T13:26:44.515Z,123.85
2022-11-22T13:29:53.560Z,84.85
2022-11-22T13:33:00.921Z,90.88
2022-11-22T13:36:27.068Z,101.93
2022-11-22T13:42:36.738Z,77.40
2022-11-22T13:46:04.956Z,147.60
2022-11-22T13:49:33.879Z,193.70
2022-11-22T13:52:54.218Z,308.33
2022-11-22T13:56:20.427Z,140.13
2022-11-22T14:02:29.218Z,154.32
2022-11-22T14:05:38.084Z,128.57
2022-11-22T14:08:45.721Z,117.53
2022-11-22T14:12:12.096Z,335.60
2022-11-22T14:15:56.992Z,435.92
2022-11-22T14:19:21.862Z,423.80
2022-11-22T14:22:35.078Z,127.63
2022-11-22T14:25:57.844Z,120.05
2022-11-22T14:29:35.642Z,127.43
2022-11-22T14:32:44.617Z,91.53
2022-11-22T14:36:07.564Z,88.18
2022-11-22T14:39:46.337Z,111.07
2022-11-22T14:42:54.471Z,121.95
2022-11-22T14:46:51.253Z,108.10
2022-11-22T14:49:54.533Z,114.43
2022-11-22T14:53:20.108Z,95.10
2022-11-22T14:56:29.370Z,142.20
2022-11-22T14:59:58.299Z,151.60
2022-11-22T15:03:12.856Z,120.25
2022-11-22T15:09:20.093Z,172.85
2022-11-22T15:10:16.911Z,281.02
2022-11-22T15:13:31.381Z,176.13
2022-11-22T15:58:23.223Z,199.48
2022-11-22T16:01:28.557Z,127.97
2022-11-22T16:04:37.789Z,156.75
2022-11-22T16:07:48.443Z,140.23
2022-11-22T16:10:53.222Z,134.73
2022-11-22T16:13:57.838Z,149.93
2022-11-22T16:17:24.623Z,135.30
2022-11-22T16:20:32.179Z,125.97
2022-11-22T16:23:38.394Z,137.82
2022-11-22T16:26:44.151Z,139.52
2022-11-22T16:32:59.392Z,146.52
2022-11-22T16:36:06.702Z,142.75
2022-11-22T16:39:11.506Z,136.02
2022-11-22T16:42:16.086Z,186.57
2022-11-22T16:45:22.819Z,133.35
2022-11-22T16:48:33.240Z,168.60
2022-11-22T16:51:38.566Z,152.52
2022-11-22T16:54:43.270Z,156.95
2022-11-22T16:57:48.099Z,138.70
2022-11-22T17:00:54.928Z,124.45
2022-11-22T17:04:01.645Z,136.52
2022-11-22T17:07:13.926Z,123.00
2022-11-22T17:10:19.033Z,118.00
2022-11-22T17:13:26.727Z,82.72
2022-11-22T17:16:31.464Z,103.63
2022-11-22T17:19:52.697Z,91.97
2022-11-22T17:22:58.646Z,72.82
2022-11-22T17:26:06.297Z,70.18
2022-11-22T17:29:18.296Z,104.03
2022-11-22T17:32:36.073Z,86.57
2022-11-22T17:35:41.048Z,82.55
2022-11-22T17:38:45.686Z,84.15
2022-11-22T17:41:50.913Z,108.47
2022-11-22T17:44:55.295Z,100.25
2022-11-22T17:48:00.134Z,87.70
2022-11-22T17:51:12.723Z,89.30
2022-11-22T17:54:17.337Z,83.93
2022-11-22T17:57:22.184Z,84.03
2022-11-22T18:00:30.013Z,90.80
2022-11-22T18:03:35.394Z,91.22
2022-11-22T18:06:39.883Z,120.13
2022-11-22T18:09:44.161Z,94.80
2022-11-22T18:13:13.646Z,101.70
2022-11-22T18:16:19.293Z,84.10
2022-11-22T18:19:24.486Z,94.82
2022-11-22T18:22:29.461Z,85.60
2022-11-22T18:25:33.879Z,91.47
2022-11-22T18:28:40.595Z,83.22
2022-11-22T18:31:52.086Z,89.07
2022-11-22T18:34:57.158Z,94.03
2022-11-22T18:38:02.027Z,92.23
2022-11-22T18:41:06.736Z,79.47
2022-11-22T18:44:11.039Z,85.97
2022-11-22T18:47:15.982Z,54.90
2022-11-22T18:50:20.583Z,62.75
2022-11-22T18:53:26.867Z,65.38
2022-11-22T18:56:31.348Z,66.32
2022-11-22T18:59:36.017Z,70.43
2022-11-22T19:02:40.502Z,59.27
2022-11-22T19:08:50.464Z,62.05
2022-11-22T19:11:58.785Z,52.83
2022-11-22T19:15:03.282Z,68.45
2022-11-22T19:18:10.471Z,69.53
2022-11-22T19:21:17.279Z,67.00
2022-11-22T19:24:21.713Z,62.47
2022-11-22T19:27:26.081Z,77.65
2022-11-22T19:30:30.383Z,64.70
2022-11-22T19:33:41.446Z,63.40
2022-11-22T19:36:45.895Z,75.22
2022-11-22T19:39:50.637Z,80.37
2022-11-22T19:42:55.115Z,353.30
2022-11-22T19:46:02.743Z,191.63
2022-11-22T19:49:07.602Z,69.82
2022-11-22T19:52:12.325Z,85.30
2022-11-22T19:55:16.835Z,76.10
2022-11-22T19:58:21.320Z,104.00
2022-11-22T20:01:28.195Z,71.30
2022-11-22T20:04:32.859Z,75.57
2022-11-22T20:07:38.018Z,74.28
2022-11-22T20:10:43.452Z,93.65
2022-11-22T20:13:51.132Z,89.63
2022-11-22T20:16:55.549Z,70.75
2022-11-22T20:20:00.251Z,77.70
2022-11-22T20:23:04.618Z,73.17
2022-11-22T20:26:11.471Z,62.50
2022-11-22T20:29:16.926Z,68.30
2022-11-22T20:32:21.596Z,142.95
2022-11-22T20:35:26.081Z,130.00
2022-11-22T20:38:33.620Z,100.10
2022-11-22T20:41:38.979Z,347.10
2022-11-22T20:44:43.432Z,158.57
2022-11-22T20:47:47.786Z,87.28
2022-11-22T20:50:53.261Z,143.30
2022-11-22T20:53:58.839Z,120.30
2022-11-22T21:00:08.543Z,97.95
2022-11-22T21:03:12.867Z,93.13
2022-11-22T21:06:20.140Z,71.18
2022-11-22T21:09:24.596Z,75.45
2022-11-22T21:12:28.837Z,104.07
2022-11-22T21:15:33.309Z,106.97
2022-11-22T21:18:37.800Z,104.90
2022-11-22T21:21:42.233Z,83.97
2022-11-22T21:24:46.485Z,91.83
2022-11-22T21:27:50.864Z,90.75
2022-11-22T21:30:59.179Z,95.33
2022-11-22T21:34:03.417Z,86.50
2022-11-22T21:37:07.943Z,95.88
2022-11-22T21:40:13.565Z,104.93
2022-11-22T21:43:17.939Z,87.22
2022-11-22T21:46:22.093Z,131.73
2022-11-22T21:49:26.659Z,150.80
2022-11-22T21:52:32.902Z,123.90
2022-11-22T21:55:37.031Z,145.90
2022-11-22T21:58:41.279Z,122.13
2022-11-22T22:01:45.718Z,118.30
2022-11-22T22:04:50.013Z,121.07
2022-11-22T22:07:54.624Z,109.55
2022-11-22T22:10:59.702Z,108.93
2022-11-22T22:14:04.278Z,94.45
2022-11-22T22:17:08.600Z,64.90
2022-11-22T22:20:13.227Z,86.13
2022-11-22T22:23:17.500Z,103.15
2022-11-22T22:26:21.877Z,101.43
2022-11-22T22:29:26.137Z,76.57
2022-11-22T22:32:30.247Z,58.67
2022-11-22T22:35:34.716Z,43.78
2022-11-22T22:38:39.545Z,37.50
2022-11-22T22:41:43.877Z,40.33
2022-11-22T22:44:48.335Z,36.40
2022-11-22T22:47:52.721Z,47.13
2022-11-22T22:50:56.969Z,43.10
2022-11-22T22:54:02.220Z,49.58
2022-11-22T22:57:06.562Z,46.60
2022-11-22T23:00:14.376Z,41.28
2022-11-22T23:03:18.619Z,62.88
2022-11-22T23:06:23.564Z,71.13
2022-11-22T23:09:28.028Z,155.38
2022-11-22T23:12:32.340Z,170.55
2022-11-22T23:15:57.427Z,152.15
2022-11-22T23:22:07.509Z,297.00
2022-11-22T23:25:11.830Z,121.53
2022-11-22T23:28:16.594Z,95.03
2022-11-22T23:31:21.861Z,60.90
2022-11-22T23:34:26.518Z,43.92
2022-11-22T23:37:30.610Z,48.33
2022-11-22T23:40:34.770Z,60.75
2022-11-22T23:43:39.109Z,54.50
2022-11-22T23:46:43.459Z,45.65
2022-11-22T23:49:47.707Z,48.97
2022-11-22T23:52:57.607Z,51.72
2022-11-22T23:56:15.863Z,54.53
2022-11-22T23:59:22.502Z,49.50
